createdAt,value
2018-12-16T00:00:47.047Z,53.92
2018-12-16T00:01:48.565Z,50.67
2018-12-16T00:02:49.939Z,52.45
2018-12-16T00:03:51.316Z,57.08
2018-12-16T00:04:52.709Z,56.95
2018-12-16T00:05:54.165Z,55.90
2018-12-16T00:06:55.616Z,57.65
2018-12-16T00:07:57.000Z,63.80
2018-12-16T00:08:58.377Z,53.68
2018-12-16T00:09:59.858Z,50.15
2018-12-16T00:11:01.501Z,51.45
2018-12-16T00:12:03.932Z,51.30
2018-12-16T00:13:05.484Z,50.08
2018-12-16T00:14:06.861Z,45.83
2018-12-16T00:15:08.322Z,52.00
2018-12-16T00:16:09.772Z,51.18
2018-12-16T00:17:11.163Z,50.73
2018-12-16T00:18:12.558Z,51.15
2018-12-16T00:19:14.035Z,48.00
2018-12-16T00:20:15.650Z,52.65
2018-12-16T00:21:18.472Z,53.78
2018-12-16T00:22:20.139Z,47.27
2018-12-16T00:23:21.840Z,49.85
2018-12-16T00:24:23.337Z,51.18
2018-12-16T00:25:24.836Z,50.80
2018-12-16T00:26:26.466Z,47.93
2018-12-16T00:27:28.097Z,55.03
2018-12-16T00:28:29.755Z,48.90
2018-12-16T00:29:31.296Z,50.08
2018-12-16T00:30:32.843Z,46.77
2018-12-16T00:31:34.277Z,47.75
2018-12-16T00:32:35.663Z,51.77
2018-12-16T00:33:37.029Z,53.90
2018-12-16T00:34:38.457Z,52.80
2018-12-16T00:35:39.831Z,49.50
2018-12-16T00:36:41.253Z,54.63
2018-12-16T00:37:42.661Z,53.85
2018-12-16T00:38:44.162Z,46.85
2018-12-16T00:39:45.539Z,51.95
2018-12-16T00:40:46.900Z,54.20
2018-12-16T00:41:48.309Z,52.05
2018-12-16T00:42:49.696Z,54.00
2018-12-16T00:43:51.083Z,53.70
2018-12-16T00:44:52.588Z,51.70
2018-12-16T00:45:54.183Z,54.25
2018-12-16T00:46:55.724Z,54.25
2018-12-16T00:47:57.251Z,54.23
2018-12-16T00:48:58.646Z,52.43
2018-12-16T00:50:00.013Z,49.27
2018-12-16T00:51:01.375Z,52.20
2018-12-16T00:52:02.994Z,48.17
2018-12-16T00:53:04.524Z,49.55
2018-12-16T00:54:05.965Z,49.10
2018-12-16T00:55:07.512Z,46.18
2018-12-16T00:56:09.051Z,52.83
2018-12-16T00:57:10.589Z,50.80
2018-12-16T00:58:13.156Z,48.23
2018-12-16T00:59:14.700Z,55.38
2018-12-16T01:00:16.352Z,51.45
2018-12-16T01:01:17.893Z,49.08
2018-12-16T01:02:19.314Z,46.20
2018-12-16T01:03:20.741Z,49.50
2018-12-16T01:04:22.110Z,43.40
2018-12-16T01:05:23.654Z,50.12
2018-12-16T01:06:25.015Z,40.38
2018-12-16T01:07:26.623Z,44.13
2018-12-16T01:08:28.177Z,45.55
2018-12-16T01:09:29.717Z,46.80
2018-12-16T01:10:31.266Z,47.65
2018-12-16T01:11:32.730Z,45.10
2018-12-16T01:12:34.246Z,44.18
2018-12-16T01:13:35.881Z,42.98
2018-12-16T01:14:37.535Z,45.08
2018-12-16T01:15:39.186Z,49.45
2018-12-16T01:16:40.656Z,44.93
2018-12-16T01:17:42.367Z,43.63
2018-12-16T01:18:43.898Z,47.25
2018-12-16T01:19:45.555Z,45.73
2018-12-16T01:20:47.087Z,45.00
2018-12-16T01:21:48.611Z,42.90
2018-12-16T01:22:50.392Z,45.20
2018-12-16T01:23:51.920Z,50.63
2018-12-16T01:24:53.578Z,44.80
2018-12-16T01:25:55.315Z,43.23
2018-12-16T01:26:56.890Z,42.73
2018-12-16T01:27:58.614Z,46.58
2018-12-16T01:29:00.082Z,49.75
2018-12-16T01:30:01.600Z,47.10
2018-12-16T01:31:03.136Z,51.33
2018-12-16T01:32:04.790Z,50.88
2018-12-16T01:33:06.531Z,51.73
2018-12-16T01:34:08.120Z,42.67
2018-12-16T01:35:09.614Z,47.80
2018-12-16T01:36:11.150Z,46.25
2018-12-16T01:37:12.802Z,60.78
2018-12-16T01:38:14.550Z,57.40
2018-12-16T01:39:16.203Z,47.65
2018-12-16T01:40:17.776Z,75.08
2018-12-16T01:41:19.416Z,99.50
2018-12-16T01:42:21.037Z,129.53
2018-12-16T01:43:22.579Z,104.03
2018-12-16T01:44:24.217Z,105.47
2018-12-16T01:45:25.862Z,107.40
2018-12-16T01:46:27.439Z,101.45
2018-12-16T01:47:29.049Z,98.15
2018-12-16T01:48:30.595Z,89.90
2018-12-16T01:49:32.035Z,86.45
2018-12-16T01:50:33.582Z,75.95
2018-12-16T01:51:35.118Z,101.07
2018-12-16T01:52:36.712Z,116.53
2018-12-16T01:53:38.313Z,77.12
2018-12-16T01:54:39.854Z,57.45
2018-12-16T01:55:41.493Z,71.90
2018-12-16T01:56:43.139Z,85.42
2018-12-16T01:57:44.790Z,113.47
2018-12-16T01:58:46.533Z,71.45
2018-12-16T01:59:48.031Z,48.78
2018-12-16T02:00:49.727Z,51.50
2018-12-16T02:01:51.363Z,82.55
2018-12-16T02:02:53.019Z,54.70
2018-12-16T02:03:54.654Z,49.73
2018-12-16T02:04:56.196Z,45.00
2018-12-16T02:05:57.742Z,45.15
2018-12-16T02:06:59.388Z,71.75
2018-12-16T02:08:00.931Z,61.92
2018-12-16T02:09:02.471Z,52.05
2018-12-16T02:10:04.021Z,55.33
2018-12-16T02:11:05.553Z,58.08
2018-12-16T02:12:07.102Z,41.88
2018-12-16T02:13:08.647Z,58.70
2018-12-16T02:14:10.297Z,59.38
2018-12-16T02:15:11.831Z,59.93
2018-12-16T02:16:13.378Z,83.58
2018-12-16T02:17:14.907Z,84.07
2018-12-16T02:18:16.472Z,60.15
2018-12-16T02:19:18.000Z,87.80
2018-12-16T02:20:19.540Z,89.13
2018-12-16T02:21:21.190Z,54.70
2018-12-16T02:22:22.722Z,51.45
2018-12-16T02:23:24.391Z,79.03
2018-12-16T02:24:26.195Z,68.35
2018-12-16T02:25:27.797Z,77.80
2018-12-16T02:26:29.411Z,85.42
2018-12-16T02:27:30.958Z,64.53
2018-12-16T02:28:32.489Z,83.95
2018-12-16T02:29:34.016Z,59.58
2018-12-16T02:30:35.599Z,46.37
2018-12-16T02:31:37.337Z,67.87
2018-12-16T02:32:38.983Z,76.67
2018-12-16T02:33:40.510Z,68.10
2018-12-16T02:34:42.062Z,72.55
2018-12-16T02:35:43.814Z,55.30
2018-12-16T02:36:45.562Z,63.50
2018-12-16T02:37:47.091Z,48.85
2018-12-16T02:38:48.745Z,55.15
2018-12-16T02:39:50.491Z,60.35
2018-12-16T02:40:52.050Z,60.38
2018-12-16T02:41:53.783Z,61.05
2018-12-16T02:42:55.534Z,49.30
2018-12-16T02:43:57.173Z,42.73
2018-12-16T02:44:58.921Z,42.08
2018-12-16T02:46:00.463Z,48.80
2018-12-16T02:47:02.046Z,49.75
2018-12-16T02:48:03.762Z,42.08
2018-12-16T02:49:05.426Z,45.52
2018-12-16T02:50:07.156Z,43.68
2018-12-16T02:51:08.683Z,37.48
2018-12-16T02:52:10.226Z,37.42
2018-12-16T02:53:11.764Z,40.25
2018-12-16T02:54:13.423Z,40.12
2018-12-16T02:55:15.166Z,41.42
2018-12-16T02:56:16.608Z,37.80
2018-12-16T02:57:18.075Z,42.35
2018-12-16T02:58:19.598Z,43.28
2018-12-16T02:59:21.134Z,43.78
2018-12-16T03:00:22.675Z,41.85
2018-12-16T03:01:24.225Z,52.48
2018-12-16T03:02:25.871Z,46.65
2018-12-16T03:03:27.400Z,49.25
2018-12-16T03:04:28.962Z,46.75
2018-12-16T03:05:30.804Z,47.88
2018-12-16T03:06:32.454Z,45.92
2018-12-16T03:07:33.995Z,47.60
2018-12-16T03:08:35.626Z,43.55
2018-12-16T03:09:37.182Z,43.68
2018-12-16T03:10:38.832Z,44.67
2018-12-16T03:11:40.467Z,43.78
2018-12-16T03:12:42.002Z,42.60
2018-12-16T03:13:43.655Z,46.13
2018-12-16T03:14:45.299Z,45.85
2018-12-16T03:15:46.843Z,48.68
2018-12-16T03:16:48.386Z,49.45
2018-12-16T03:17:50.030Z,46.98
2018-12-16T03:18:51.576Z,48.28
2018-12-16T03:19:53.115Z,46.83
2018-12-16T03:20:54.659Z,46.08
2018-12-16T03:21:56.207Z,50.67
2018-12-16T03:22:57.745Z,46.35
2018-12-16T03:23:59.288Z,55.05
2018-12-16T03:25:00.832Z,54.10
2018-12-16T03:26:04.631Z,47.40
2018-12-16T03:27:06.277Z,42.03
2018-12-16T03:28:07.802Z,46.75
2018-12-16T03:29:09.361Z,44.50
2018-12-16T03:30:10.903Z,48.68
2018-12-16T03:31:12.648Z,51.90
2018-12-16T03:32:14.142Z,51.15
2018-12-16T03:33:15.628Z,49.98
2018-12-16T03:34:17.171Z,50.75
2018-12-16T03:35:18.712Z,48.80
2018-12-16T03:36:20.262Z,52.53
2018-12-16T03:37:21.802Z,50.17
2018-12-16T03:38:24.475Z,50.95
2018-12-16T03:39:26.009Z,49.50
2018-12-16T03:40:27.544Z,43.40
2018-12-16T03:41:29.088Z,44.75
2018-12-16T03:42:30.642Z,45.45
2018-12-16T03:43:32.142Z,44.42
2018-12-16T03:44:33.613Z,54.98
2018-12-16T03:45:35.261Z,45.23
2018-12-16T03:46:36.919Z,49.98
2018-12-16T03:47:38.464Z,48.15
2018-12-16T03:48:40.029Z,46.68
2018-12-16T03:49:41.542Z,47.38
2018-12-16T03:50:43.193Z,50.52
2018-12-16T03:51:44.614Z,52.62
2018-12-16T03:52:46.083Z,51.58
2018-12-16T03:53:47.701Z,50.90
2018-12-16T03:54:49.272Z,52.40
2018-12-16T03:55:50.786Z,51.25
2018-12-16T03:56:52.442Z,51.37
2018-12-16T03:57:53.988Z,50.83
2018-12-16T03:58:55.620Z,52.30
2018-12-16T03:59:57.171Z,51.00
2018-12-16T04:00:58.614Z,53.90
2018-12-16T04:02:00.068Z,51.53
2018-12-16T04:03:01.586Z,49.03
2018-12-16T04:04:03.245Z,52.73
2018-12-16T04:05:04.882Z,53.00
2018-12-16T04:06:06.530Z,53.40
2018-12-16T04:07:08.092Z,45.58
2018-12-16T04:08:09.611Z,48.98
2018-12-16T04:09:11.258Z,50.35
2018-12-16T04:10:12.753Z,51.60
2018-12-16T04:11:14.458Z,49.67
2018-12-16T04:12:16.098Z,46.05
2018-12-16T04:13:17.747Z,46.42
2018-12-16T04:14:19.389Z,47.50
2018-12-16T04:15:21.036Z,46.90
2018-12-16T04:16:22.669Z,50.43
2018-12-16T04:17:24.065Z,51.65
2018-12-16T04:18:25.759Z,45.98
2018-12-16T04:19:27.410Z,46.18
2018-12-16T04:20:28.943Z,48.68
2018-12-16T04:21:30.593Z,44.60
2018-12-16T04:22:32.060Z,44.00
2018-12-16T04:23:33.586Z,45.08
2018-12-16T04:24:35.118Z,41.83
2018-12-16T04:25:36.559Z,50.48
2018-12-16T04:26:38.101Z,49.25
2018-12-16T04:27:39.659Z,47.62
2018-12-16T04:28:41.296Z,49.30
2018-12-16T04:29:42.938Z,44.10
2018-12-16T04:30:45.404Z,45.65
2018-12-16T04:31:46.944Z,45.90
2018-12-16T04:32:48.694Z,47.75
2018-12-16T04:33:50.338Z,45.20
2018-12-16T04:34:51.871Z,46.55
2018-12-16T04:35:53.237Z,45.95
2018-12-16T04:36:54.669Z,50.48
2018-12-16T04:37:56.108Z,47.88
2018-12-16T04:38:57.645Z,44.95
2018-12-16T04:39:59.179Z,42.33
2018-12-16T04:41:00.711Z,44.98
2018-12-16T04:42:02.275Z,43.60
2018-12-16T04:43:03.825Z,38.70
2018-12-16T04:44:07.153Z,39.92
2018-12-16T04:45:08.952Z,41.20
2018-12-16T04:46:10.492Z,49.20
2018-12-16T04:47:12.035Z,52.27
2018-12-16T04:48:13.494Z,49.73
2018-12-16T04:49:15.115Z,53.23
2018-12-16T04:50:16.651Z,48.30
2018-12-16T04:51:18.310Z,46.02
2018-12-16T04:52:19.954Z,52.17
2018-12-16T04:53:21.694Z,47.93
2018-12-16T04:54:23.340Z,53.10
2018-12-16T04:55:24.983Z,55.35
2018-12-16T04:56:26.633Z,46.42
2018-12-16T04:57:28.097Z,48.48
2018-12-16T04:58:29.818Z,50.12
2018-12-16T04:59:31.357Z,50.50
2018-12-16T05:00:33.101Z,43.70
2018-12-16T05:01:34.853Z,42.80
2018-12-16T05:02:36.401Z,48.73
2018-12-16T05:03:38.045Z,50.28
2018-12-16T05:04:39.897Z,45.40
2018-12-16T05:05:41.731Z,42.23
2018-12-16T05:06:43.421Z,46.28
2018-12-16T05:07:45.134Z,43.92
2018-12-16T05:08:46.882Z,48.98
2018-12-16T05:09:48.526Z,43.75
2018-12-16T05:10:50.076Z,46.50
2018-12-16T05:11:51.718Z,46.77
2018-12-16T05:12:53.249Z,47.20
2018-12-16T05:13:54.904Z,50.03
2018-12-16T05:14:56.546Z,49.23
2018-12-16T05:15:58.077Z,48.45
2018-12-16T05:16:59.600Z,40.28
2018-12-16T05:18:01.081Z,43.48
2018-12-16T05:19:02.614Z,44.65
2018-12-16T05:20:04.266Z,45.95
2018-12-16T05:21:05.897Z,45.23
2018-12-16T05:22:07.451Z,47.33
2018-12-16T05:23:08.995Z,45.95
2018-12-16T05:24:10.639Z,46.60
2018-12-16T05:25:12.136Z,47.17
2018-12-16T05:26:13.826Z,47.05
2018-12-16T05:27:15.356Z,51.02
2018-12-16T05:28:16.923Z,47.98
2018-12-16T05:29:18.559Z,52.90
2018-12-16T05:30:19.936Z,45.60
2018-12-16T05:31:21.320Z,49.25
2018-12-16T05:32:22.981Z,45.70
2018-12-16T05:33:24.629Z,45.15
2018-12-16T05:34:26.377Z,46.33
2018-12-16T05:35:27.910Z,44.85
2018-12-16T05:36:29.452Z,44.20
2018-12-16T05:37:30.998Z,45.38
2018-12-16T05:38:32.545Z,45.48
2018-12-16T05:39:34.394Z,46.28
2018-12-16T05:40:35.941Z,43.60
2018-12-16T05:41:37.485Z,51.98
2018-12-16T05:42:39.011Z,43.73
2018-12-16T05:43:40.519Z,42.60
2018-12-16T05:44:42.311Z,45.12
2018-12-16T05:45:43.956Z,44.77
2018-12-16T05:46:45.598Z,43.70
2018-12-16T05:47:47.143Z,45.90
2018-12-16T05:48:48.687Z,46.80
2018-12-16T05:49:50.326Z,48.73
2018-12-16T05:50:51.975Z,47.03
2018-12-16T05:51:53.619Z,37.98
2018-12-16T05:52:55.265Z,40.33
2018-12-16T05:53:56.913Z,46.75
2018-12-16T05:54:58.441Z,46.68
2018-12-16T05:56:00.095Z,45.03
2018-12-16T05:57:01.633Z,44.08
2018-12-16T05:58:03.291Z,45.33
2018-12-16T05:59:04.931Z,43.13
2018-12-16T06:00:06.678Z,42.13
2018-12-16T06:01:08.322Z,50.28
2018-12-16T06:02:10.076Z,46.33
2018-12-16T06:03:11.715Z,50.10
2018-12-16T06:04:13.358Z,54.03
2018-12-16T06:05:15.014Z,52.83
2018-12-16T06:06:16.659Z,47.38
2018-12-16T06:07:18.303Z,51.98
2018-12-16T06:08:19.946Z,48.38
2018-12-16T06:09:21.586Z,51.40
2018-12-16T06:10:23.134Z,44.40
2018-12-16T06:11:24.576Z,46.37
2018-12-16T06:12:26.105Z,44.03
2018-12-16T06:13:27.657Z,42.13
2018-12-16T06:14:29.201Z,42.80
2018-12-16T06:15:30.744Z,46.42
2018-12-16T06:16:32.101Z,48.50
2018-12-16T06:17:33.511Z,49.20
2018-12-16T06:18:36.102Z,46.73
2018-12-16T06:19:37.619Z,46.53
2018-12-16T06:20:39.180Z,44.45
2018-12-16T06:21:40.819Z,47.23
2018-12-16T06:22:42.347Z,44.10
2018-12-16T06:23:44.007Z,42.65
2018-12-16T06:24:45.655Z,41.30
2018-12-16T06:25:47.434Z,45.43
2018-12-16T06:26:50.072Z,42.03
2018-12-16T06:27:51.706Z,42.43
2018-12-16T06:28:53.387Z,41.25
2018-12-16T06:29:54.903Z,43.87
2018-12-16T06:30:56.648Z,46.88
2018-12-16T06:31:58.117Z,43.45
2018-12-16T06:32:59.635Z,42.03
2018-12-16T06:34:01.181Z,45.40
2018-12-16T06:35:02.716Z,41.53
2018-12-16T06:36:04.274Z,46.75
2018-12-16T06:37:05.805Z,43.10
2018-12-16T06:38:07.177Z,40.98
2018-12-16T06:39:08.686Z,39.45
2018-12-16T06:40:10.146Z,43.80
2018-12-16T06:41:11.971Z,38.33
2018-12-16T06:42:13.615Z,46.90
2018-12-16T06:43:15.271Z,45.45
2018-12-16T06:44:16.906Z,44.25
2018-12-16T06:45:18.550Z,47.85
2018-12-16T06:46:20.434Z,45.95
2018-12-16T06:47:22.277Z,45.28
2018-12-16T06:48:23.990Z,50.92
2018-12-16T06:49:25.750Z,50.60
2018-12-16T06:50:27.499Z,52.43
2018-12-16T06:51:29.037Z,53.60
2018-12-16T06:52:30.589Z,47.88
2018-12-16T06:53:32.121Z,52.03
2018-12-16T06:54:33.667Z,45.98
2018-12-16T06:55:35.209Z,46.50
2018-12-16T06:56:36.751Z,38.20
2018-12-16T06:57:38.144Z,49.05
2018-12-16T06:58:39.633Z,44.63
2018-12-16T06:59:41.171Z,46.58
2018-12-16T07:00:42.704Z,44.93
2018-12-16T07:01:44.366Z,48.50
2018-12-16T07:02:46.126Z,51.55
2018-12-16T07:03:47.741Z,62.50
2018-12-16T07:04:49.400Z,51.15
2018-12-16T07:05:51.142Z,45.78
2018-12-16T07:06:53.248Z,40.48
2018-12-16T07:07:55.156Z,50.40
2018-12-16T07:08:56.686Z,49.40
2018-12-16T07:09:58.345Z,44.10
2018-12-16T07:11:00.008Z,50.25
2018-12-16T07:12:01.535Z,49.73
2018-12-16T07:13:03.085Z,58.73
2018-12-16T07:14:04.615Z,48.10
2018-12-16T07:15:06.112Z,45.00
2018-12-16T07:16:07.637Z,38.78
2018-12-16T07:17:09.244Z,40.52
2018-12-16T07:18:10.681Z,44.85
2018-12-16T07:19:12.165Z,51.65
2018-12-16T07:20:13.652Z,48.45
2018-12-16T07:21:15.351Z,50.33
2018-12-16T07:22:16.955Z,41.50
2018-12-16T07:23:18.489Z,39.40
2018-12-16T07:24:20.150Z,45.95
2018-12-16T07:25:21.684Z,50.50
2018-12-16T07:26:23.538Z,44.38
2018-12-16T07:27:26.307Z,51.75
2018-12-16T07:28:27.843Z,51.70
2018-12-16T07:29:29.511Z,49.88
2018-12-16T07:30:30.970Z,46.73
2018-12-16T07:31:32.680Z,44.48
2018-12-16T07:32:34.174Z,49.95
2018-12-16T07:33:35.701Z,40.98
2018-12-16T07:34:37.519Z,43.08
2018-12-16T07:35:39.153Z,43.65
2018-12-16T07:36:40.921Z,44.55
2018-12-16T07:37:42.642Z,52.03
2018-12-16T07:38:44.313Z,53.65
2018-12-16T07:39:45.958Z,45.55
2018-12-16T07:40:47.596Z,46.92
2018-12-16T07:41:49.253Z,46.37
2018-12-16T07:42:50.859Z,41.28
2018-12-16T07:43:52.584Z,45.08
2018-12-16T07:44:54.102Z,47.10
2018-12-16T07:45:55.675Z,44.03
2018-12-16T07:46:57.971Z,47.05
2018-12-16T07:47:59.523Z,43.17
2018-12-16T07:49:01.077Z,39.45
2018-12-16T07:50:02.734Z,42.05
2018-12-16T07:51:04.361Z,44.23
2018-12-16T07:52:06.017Z,46.40
2018-12-16T07:53:07.856Z,38.78
2018-12-16T07:54:15.930Z,34.78
2018-12-16T07:55:13.122Z,39.00
2018-12-16T07:56:14.869Z,30.77
2018-12-16T07:57:16.479Z,36.90
2018-12-16T07:58:18.016Z,36.25
2018-12-16T07:59:19.573Z,34.25
2018-12-16T08:00:21.257Z,29.27
2018-12-16T08:01:22.741Z,29.32
2018-12-16T08:02:24.250Z,27.07
2018-12-16T08:03:25.860Z,30.55
2018-12-16T08:04:27.382Z,26.95
2018-12-16T08:05:28.846Z,43.85
2018-12-16T08:06:30.359Z,39.67
2018-12-16T08:07:31.899Z,94.05
2018-12-16T08:08:33.437Z,63.90
2018-12-16T08:09:34.832Z,54.65
2018-12-16T08:10:36.316Z,32.03
2018-12-16T08:11:37.888Z,27.27
2018-12-16T08:12:39.358Z,41.92
2018-12-16T08:13:40.941Z,43.02
2018-12-16T08:14:42.484Z,32.28
2018-12-16T08:15:43.974Z,31.15
2018-12-16T08:16:45.404Z,30.08
2018-12-16T08:17:46.906Z,27.45
2018-12-16T08:18:49.411Z,32.17
2018-12-16T08:19:51.126Z,33.48
2018-12-16T08:20:52.628Z,35.93
2018-12-16T08:21:53.999Z,33.33
2018-12-16T08:22:55.439Z,34.57
2018-12-16T08:23:56.981Z,40.75
2018-12-16T08:24:58.431Z,55.75
2018-12-16T08:25:59.810Z,49.93
2018-12-16T08:27:01.195Z,40.92
2018-12-16T08:28:02.756Z,41.23
2018-12-16T08:29:04.183Z,41.02
2018-12-16T08:30:05.587Z,33.40
2018-12-16T08:31:06.983Z,31.82
2018-12-16T08:32:08.697Z,33.18
2018-12-16T08:33:10.073Z,38.40
2018-12-16T08:34:11.521Z,107.47
2018-12-16T08:35:12.904Z,221.18
2018-12-16T08:36:14.416Z,86.70
2018-12-16T08:37:15.902Z,42.70
2018-12-16T08:38:17.466Z,47.50
2018-12-16T08:39:19.006Z,57.03
2018-12-16T08:40:20.562Z,29.20
2018-12-16T08:41:22.047Z,32.90
2018-12-16T08:42:23.451Z,33.15
2018-12-16T08:43:24.845Z,29.90
2018-12-16T08:44:26.245Z,27.27
2018-12-16T08:45:27.735Z,32.38
2018-12-16T08:46:29.319Z,35.45
2018-12-16T08:47:33.222Z,35.20
2018-12-16T08:48:34.202Z,50.17
2018-12-16T08:49:35.637Z,60.60
2018-12-16T08:50:37.242Z,33.83
2018-12-16T08:51:38.749Z,42.73
2018-12-16T08:52:40.160Z,58.52
2018-12-16T08:53:41.600Z,52.03
2018-12-16T08:54:43.107Z,49.05
2018-12-16T08:55:44.526Z,44.85
2018-12-16T08:56:45.909Z,40.28
2018-12-16T08:57:47.291Z,34.65
2018-12-16T08:58:48.761Z,34.45
2018-12-16T08:59:50.279Z,36.25
2018-12-16T09:00:51.712Z,33.95
2018-12-16T09:01:53.080Z,25.20
2018-12-16T09:02:54.456Z,37.05
2018-12-16T09:03:55.877Z,31.05
2018-12-16T09:04:57.595Z,40.03
2018-12-16T09:06:00.092Z,50.40
2018-12-16T09:07:01.493Z,42.00
2018-12-16T09:08:02.939Z,39.60
2018-12-16T09:09:04.320Z,36.13
2018-12-16T09:10:05.735Z,35.40
2018-12-16T09:11:07.174Z,42.85
2018-12-16T09:12:08.566Z,43.73
2018-12-16T09:13:10.004Z,34.53
2018-12-16T09:14:11.411Z,42.90
2018-12-16T09:15:12.849Z,40.58
2018-12-16T09:16:14.258Z,30.62
2018-12-16T09:17:15.799Z,31.13
2018-12-16T09:18:17.240Z,36.08
2018-12-16T09:19:18.644Z,32.85
2018-12-16T09:20:20.051Z,41.40
2018-12-16T09:21:21.536Z,40.80
2018-12-16T09:22:22.972Z,39.10
2018-12-16T09:23:24.400Z,46.68
2018-12-16T09:24:25.884Z,53.50
2018-12-16T09:25:27.307Z,50.92
2018-12-16T09:26:28.712Z,63.38
2018-12-16T09:27:30.132Z,68.05
2018-12-16T09:28:31.567Z,40.30
2018-12-16T09:29:33.116Z,33.53
2018-12-16T09:30:34.557Z,25.52
2018-12-16T09:31:35.961Z,30.92
2018-12-16T09:32:37.362Z,42.73
2018-12-16T09:33:38.796Z,37.00
2018-12-16T09:34:40.432Z,39.30
2018-12-16T09:35:41.838Z,34.70
2018-12-16T09:36:43.265Z,41.48
2018-12-16T09:37:44.686Z,30.17
2018-12-16T09:38:46.087Z,38.17
2018-12-16T09:39:47.622Z,49.48
2018-12-16T09:40:49.048Z,29.07
2018-12-16T09:41:50.460Z,27.17
2018-12-16T09:42:51.851Z,42.30
2018-12-16T09:43:53.359Z,57.05
2018-12-16T09:44:54.848Z,43.30
2018-12-16T09:45:56.299Z,33.05
2018-12-16T09:46:57.727Z,38.35
2018-12-16T09:47:59.121Z,39.08
2018-12-16T09:49:00.533Z,40.45
2018-12-16T09:50:01.965Z,36.10
2018-12-16T09:51:03.441Z,41.45
2018-12-16T09:52:04.833Z,29.80
2018-12-16T09:53:06.257Z,28.80
2018-12-16T09:54:07.842Z,27.15
2018-12-16T09:55:09.369Z,26.97
2018-12-16T09:56:10.768Z,30.60
2018-12-16T09:57:12.228Z,28.67
2018-12-16T09:58:13.646Z,27.58
2018-12-16T09:59:15.070Z,27.15
2018-12-16T10:00:16.525Z,27.35
2018-12-16T10:01:17.947Z,29.85
2018-12-16T10:02:19.315Z,27.32
2018-12-16T10:03:20.730Z,28.12
2018-12-16T10:04:22.134Z,30.08
2018-12-16T10:05:23.570Z,31.35
2018-12-16T10:06:24.987Z,40.65
2018-12-16T10:07:26.421Z,38.92
2018-12-16T10:08:27.818Z,37.75
2018-12-16T10:09:29.237Z,31.35
2018-12-16T10:10:30.692Z,25.75
2018-12-16T10:11:32.093Z,25.23
2018-12-16T10:12:33.452Z,24.30
2018-12-16T10:13:34.840Z,25.02
2018-12-16T10:14:36.252Z,29.27
2018-12-16T10:15:37.691Z,25.95
2018-12-16T10:16:39.100Z,28.73
2018-12-16T10:17:40.524Z,27.17
2018-12-16T10:18:41.946Z,28.30
2018-12-16T10:19:43.365Z,58.95
2018-12-16T10:20:44.896Z,33.25
2018-12-16T10:21:46.337Z,24.57
2018-12-16T10:22:47.774Z,25.48
2018-12-16T10:23:49.175Z,29.07
2018-12-16T10:24:51.502Z,31.70
2018-12-16T10:25:53.258Z,26.37
2018-12-16T10:26:54.690Z,43.48
2018-12-16T10:27:56.074Z,57.75
2018-12-16T10:28:57.493Z,39.80
2018-12-16T10:29:58.855Z,28.20
2018-12-16T10:31:00.373Z,38.45
2018-12-16T10:32:01.762Z,28.65
2018-12-16T10:33:03.180Z,35.05
2018-12-16T10:34:04.607Z,40.50
2018-12-16T10:35:06.051Z,28.87
2018-12-16T10:36:07.512Z,28.77
2018-12-16T10:37:08.917Z,49.50
2018-12-16T10:38:10.282Z,30.45
2018-12-16T10:39:11.616Z,28.47
2018-12-16T10:40:12.981Z,30.27
2018-12-16T10:41:14.373Z,36.45
2018-12-16T10:42:20.811Z,29.72
2018-12-16T10:43:22.191Z,41.80
2018-12-16T10:44:23.590Z,46.70
2018-12-16T10:45:24.938Z,39.73
2018-12-16T10:46:26.340Z,39.27
2018-12-16T10:47:27.706Z,46.00
2018-12-16T10:48:29.089Z,41.45
2018-12-16T10:49:30.447Z,36.10
2018-12-16T10:50:31.823Z,32.65
2018-12-16T10:51:33.280Z,59.23
2018-12-16T10:52:34.645Z,48.78
2018-12-16T10:53:36.657Z,67.50
2018-12-16T10:54:38.212Z,42.15
2018-12-16T10:55:39.574Z,39.08
2018-12-16T10:56:41.025Z,27.93
2018-12-16T10:57:42.450Z,27.37
2018-12-16T10:58:43.895Z,25.80
2018-12-16T10:59:45.330Z,31.62
2018-12-16T11:00:46.688Z,63.15
2018-12-16T11:01:48.130Z,45.58
2018-12-16T11:02:49.550Z,31.55
2018-12-16T11:03:51.093Z,32.90
2018-12-16T11:04:52.462Z,24.67
2018-12-16T11:05:53.808Z,27.93
2018-12-16T11:06:55.205Z,27.05
2018-12-16T11:07:56.611Z,27.82
2018-12-16T11:08:57.965Z,26.20
2018-12-16T11:09:59.400Z,27.93
2018-12-16T11:11:00.782Z,27.95
2018-12-16T11:12:02.241Z,25.97
2018-12-16T11:13:03.601Z,27.93
2018-12-16T11:14:04.977Z,32.58
2018-12-16T11:15:06.353Z,31.62
2018-12-16T11:16:07.694Z,28.77
2018-12-16T11:17:09.147Z,25.55
2018-12-16T11:18:10.515Z,30.08
2018-12-16T11:19:11.933Z,36.60
2018-12-16T11:20:13.353Z,30.00
2018-12-16T11:21:14.704Z,31.73
2018-12-16T11:22:16.076Z,33.88
2018-12-16T11:23:17.477Z,29.70
2018-12-16T11:24:18.880Z,28.20
2018-12-16T11:25:20.292Z,33.48
2018-12-16T11:26:21.691Z,27.07
2018-12-16T11:27:23.151Z,29.18
2018-12-16T11:28:24.572Z,30.68
2018-12-16T11:29:25.930Z,35.92
2018-12-16T11:30:27.441Z,27.48
2018-12-16T11:31:28.810Z,26.90
2018-12-16T11:32:30.297Z,25.85
2018-12-16T11:33:31.743Z,25.62
2018-12-16T11:34:33.142Z,28.15
2018-12-16T11:35:34.603Z,23.02
2018-12-16T11:36:36.005Z,24.43
2018-12-16T11:37:37.448Z,22.00
2018-12-16T11:38:38.823Z,26.35
2018-12-16T11:39:40.253Z,24.27
2018-12-16T11:40:41.600Z,25.53
2018-12-16T11:41:43.028Z,24.37
2018-12-16T11:42:44.560Z,24.30
2018-12-16T11:43:45.962Z,24.07
2018-12-16T11:44:47.374Z,32.48
2018-12-16T11:45:48.810Z,29.55
2018-12-16T11:46:50.327Z,25.70
2018-12-16T11:47:51.831Z,24.23
2018-12-16T11:48:53.254Z,24.43
2018-12-16T11:49:54.692Z,22.52
2018-12-16T11:50:56.100Z,23.52
2018-12-16T11:51:57.479Z,25.32
2018-12-16T11:52:58.965Z,27.07
2018-12-16T11:54:00.371Z,27.10
2018-12-16T11:55:01.770Z,31.45
2018-12-16T11:56:03.174Z,28.60
2018-12-16T11:57:04.581Z,24.60
2018-12-16T11:58:06.056Z,27.13
2018-12-16T11:59:07.463Z,25.72
2018-12-16T12:00:08.896Z,41.02
2018-12-16T12:01:10.248Z,62.08
2018-12-16T12:02:11.756Z,44.20
2018-12-16T12:03:13.252Z,26.82
2018-12-16T12:04:14.713Z,30.15
2018-12-16T12:05:16.148Z,42.93
2018-12-16T12:06:17.529Z,38.10
2018-12-16T12:07:18.927Z,39.78
2018-12-16T12:08:20.373Z,43.23
2018-12-16T12:09:21.737Z,35.25
2018-12-16T12:10:23.171Z,40.60
2018-12-16T12:11:24.532Z,30.50
2018-12-16T12:12:25.903Z,43.17
2018-12-16T12:13:27.346Z,44.40
2018-12-16T12:14:28.736Z,43.45
2018-12-16T12:15:30.100Z,30.00
2018-12-16T12:16:31.518Z,30.30
2018-12-16T12:17:32.923Z,28.98
2018-12-16T12:18:34.675Z,25.40
2018-12-16T12:19:36.191Z,29.32
2018-12-16T12:20:37.639Z,24.27
2018-12-16T12:21:39.064Z,33.48
2018-12-16T12:22:40.423Z,33.50
2018-12-16T12:23:41.884Z,26.70
2018-12-16T12:24:43.243Z,26.80
2018-12-16T12:25:44.641Z,28.52
2018-12-16T12:26:46.030Z,25.20
2018-12-16T12:27:47.398Z,27.27
2018-12-16T12:28:48.804Z,27.15
2018-12-16T12:29:50.199Z,23.57
2018-12-16T12:30:51.583Z,25.52
2018-12-16T12:31:52.938Z,23.55
2018-12-16T12:32:54.395Z,24.12
2018-12-16T12:33:56.305Z,27.95
2018-12-16T12:34:57.721Z,29.35
2018-12-16T12:35:59.071Z,24.18
2018-12-16T12:37:00.473Z,23.27
2018-12-16T12:38:01.884Z,20.57
2018-12-16T12:39:03.344Z,21.75
2018-12-16T12:40:04.838Z,21.70
2018-12-16T12:41:06.283Z,21.10
2018-12-16T12:42:07.787Z,18.73
2018-12-16T12:43:09.165Z,20.48
2018-12-16T12:44:10.697Z,22.85
2018-12-16T12:45:12.210Z,23.42
2018-12-16T12:46:13.638Z,19.15
2018-12-16T12:47:15.047Z,22.67
2018-12-16T12:48:16.454Z,37.50
2018-12-16T12:49:17.918Z,26.68
2018-12-16T12:50:19.322Z,24.70
2018-12-16T12:51:20.757Z,25.62
2018-12-16T12:52:22.200Z,20.25
2018-12-16T12:53:23.638Z,20.50
2018-12-16T12:54:25.065Z,23.55
2018-12-16T12:55:26.932Z,24.10
2018-12-16T12:56:28.639Z,22.50
2018-12-16T12:57:30.051Z,23.67
2018-12-16T12:58:31.449Z,28.73
2018-12-16T12:59:32.887Z,30.02
2018-12-16T13:00:34.269Z,24.77
2018-12-16T13:01:35.692Z,27.77
2018-12-16T13:02:37.086Z,25.02
2018-12-16T13:03:38.485Z,26.85
2018-12-16T13:04:39.986Z,23.00
2018-12-16T13:05:41.399Z,21.85
2018-12-16T13:06:42.805Z,20.30
2018-12-16T13:07:44.193Z,24.95
2018-12-16T13:08:45.755Z,29.45
2018-12-16T13:09:47.174Z,26.95
2018-12-16T13:10:48.557Z,24.32
2018-12-16T13:11:50.007Z,24.98
2018-12-16T13:12:51.429Z,27.67